KLM1972 LDSP-EHAM
Flight info
| Callsign | KLM1972 |
|---|---|
| Flight time | 2h 9m |
| Altitude | 36000 |
| Route | ZDA DCT EBITA DCT PUL DCT NAKIT DCT PEVAL DCT BRENO DCT KONIN M726 MAH DCT ASPAT DCT MASEK DCT MAPOX DCT NORKU |
| Aircraft | B739/M-SDE2E3FGHIRWXY/LB1 |
Departure
| Time | 2026-04-30 10:55 |
|---|---|
| Airport | Split Saint Jerome Airport (LDSP) |
Arrival
| Time | 2026-04-30 13:05 |
|---|---|
| Airport | Amsterdam Airport Schiphol (EHAM) |
| Time | Latitude | Longitude | Altitude | Speed | Heading |
|---|---|---|---|---|---|
| 2026-04-30 10:32 | 43.53621 | 16.29664 | 67 ft | 0 kts | 93° |
| 2026-04-30 10:50 | 43.53622 | 16.29667 | 67 ft | 1 kts | 85° |
| 2026-04-30 10:50 | 43.53634 | 16.29676 | 58 ft | 2 kts | 356° |
| 2026-04-30 10:50 | 43.53649 | 16.29656 | 63 ft | 4 kts | 313° |
| 2026-04-30 10:51 | 43.53674 | 16.29613 | 69 ft | 6 kts | 305° |
| 2026-04-30 10:51 | 43.53693 | 16.29555 | 65 ft | 9 kts | 284° |
| 2026-04-30 10:51 | 43.53693 | 16.29467 | 78 ft | 10 kts | 258° |
| 2026-04-30 10:51 | 43.53658 | 16.29371 | 82 ft | 12 kts | 234° |
| 2026-04-30 10:52 | 43.53602 | 16.29269 | 81 ft | 15 kts | 233° |
| 2026-04-30 10:52 | 43.53530 | 16.29138 | 86 ft | 20 kts | 233° |
| 2026-04-30 10:52 | 43.53436 | 16.28969 | 90 ft | 23 kts | 232° |
| 2026-04-30 10:52 | 43.53340 | 16.28798 | 85 ft | 22 kts | 232° |
| 2026-04-30 10:53 | 43.53267 | 16.28666 | 84 ft | 10 kts | 231° |
| 2026-04-30 10:53 | 43.53211 | 16.28619 | 87 ft | 7 kts | 201° |
| 2026-04-30 10:53 | 43.53202 | 16.28581 | 86 ft | 3 kts | 308° |
| 2026-04-30 10:53 | 43.53203 | 16.28580 | 83 ft | 3 kts | 317° |
| 2026-04-30 10:54 | 43.53214 | 16.28581 | 83 ft | 2 kts | 15° |
| 2026-04-30 10:54 | 43.53219 | 16.28587 | 83 ft | 0 kts | 49° |
| 2026-04-30 10:54 | 43.53220 | 16.28589 | 83 ft | 3 kts | 49° |
| 2026-04-30 10:54 | 43.53358 | 16.28829 | 86 ft | 68 kts | 52° |
| 2026-04-30 10:55 | 43.53783 | 16.29595 | 74 ft | 131 kts | 52° |
| 2026-04-30 10:55 | 43.54428 | 16.30756 | 258 ft | 164 kts | 52° |
| 2026-04-30 10:55 | 43.55104 | 16.32003 | 1054 ft | 164 kts | 55° |
| 2026-04-30 10:55 | 43.55543 | 16.33515 | 1621 ft | 180 kts | 87° |
| 2026-04-30 10:56 | 43.55035 | 16.35107 | 2342 ft | 196 kts | 129° |
| 2026-04-30 10:56 | 43.53843 | 16.36144 | 2990 ft | 206 kts | 141° |
| 2026-04-30 10:56 | 43.52571 | 16.37085 | 3663 ft | 204 kts | 145° |
| 2026-04-30 10:56 | 43.51320 | 16.37944 | 4446 ft | 199 kts | 144° |
| 2026-04-30 10:57 | 43.50085 | 16.38815 | 4958 ft | 200 kts | 144° |
| 2026-04-30 10:57 | 43.48844 | 16.39712 | 5445 ft | 202 kts | 143° |
| 2026-04-30 10:57 | 43.47570 | 16.40609 | 5478 ft | 210 kts | 151° |
| 2026-04-30 10:57 | 43.46085 | 16.40784 | 5499 ft | 224 kts | 191° |
| 2026-04-30 10:58 | 43.44721 | 16.39707 | 5641 ft | 233 kts | 223° |
| 2026-04-30 10:58 | 43.43612 | 16.37949 | 5835 ft | 254 kts | 234° |
| 2026-04-30 10:58 | 43.42518 | 16.35929 | 6162 ft | 267 kts | 236° |
| 2026-04-30 10:58 | 43.41436 | 16.33911 | 6925 ft | 263 kts | 235° |
| 2026-04-30 10:59 | 43.40300 | 16.31815 | 7147 ft | 284 kts | 234° |
| 2026-04-30 10:59 | 43.39091 | 16.29622 | 7821 ft | 290 kts | 234° |
| 2026-04-30 10:59 | 43.37858 | 16.27406 | 8619 ft | 294 kts | 235° |
| 2026-04-30 10:59 | 43.36610 | 16.25165 | 9434 ft | 296 kts | 237° |
| 2026-04-30 11:00 | 43.35765 | 16.22630 | 10178 ft | 291 kts | 265° |
| 2026-04-30 11:00 | 43.35827 | 16.19858 | 10589 ft | 298 kts | 289° |
| 2026-04-30 11:00 | 43.36797 | 16.17286 | 10769 ft | 312 kts | 313° |
| 2026-04-30 11:00 | 43.38420 | 16.15200 | 10998 ft | 328 kts | 322° |
| 2026-04-30 11:01 | 43.40206 | 16.13243 | 11504 ft | 336 kts | 324° |
| 2026-04-30 11:01 | 43.42081 | 16.11244 | 12030 ft | 345 kts | 324° |
| 2026-04-30 11:01 | 43.43990 | 16.09209 | 12681 ft | 349 kts | 323° |
| 2026-04-30 11:01 | 43.45912 | 16.07146 | 13419 ft | 351 kts | 323° |
| 2026-04-30 11:02 | 43.47840 | 16.05058 | 14093 ft | 354 kts | 323° |
| 2026-04-30 11:02 | 43.49782 | 16.02941 | 14702 ft | 357 kts | 323° |
| 2026-04-30 11:02 | 43.51731 | 16.00808 | 15362 ft | 358 kts | 323° |
| 2026-04-30 11:02 | 43.53684 | 15.98663 | 16013 ft | 360 kts | 322° |
| 2026-04-30 11:03 | 43.55657 | 15.96491 | 16579 ft | 364 kts | 322° |
| 2026-04-30 11:03 | 43.56998 | 15.95013 | 17001 ft | 366 kts | 321° |
| 2026-04-30 11:03 | 43.58960 | 15.92848 | 17673 ft | 366 kts | 321° |
| 2026-04-30 11:04 | 43.62979 | 15.88406 | 18872 ft | 370 kts | 320° |
| 2026-04-30 11:04 | 43.64967 | 15.86205 | 19391 ft | 372 kts | 320° |
| 2026-04-30 11:04 | 43.66992 | 15.83961 | 19946 ft | 374 kts | 320° |
| 2026-04-30 11:04 | 43.69024 | 15.81708 | 20469 ft | 375 kts | 320° |
| 2026-04-30 11:05 | 43.71067 | 15.79440 | 20982 ft | 378 kts | 320° |
| 2026-04-30 11:05 | 43.73120 | 15.77159 | 21508 ft | 380 kts | 320° |
| 2026-04-30 11:05 | 43.75184 | 15.74865 | 22021 ft | 382 kts | 320° |
| 2026-04-30 11:05 | 43.77261 | 15.72553 | 22521 ft | 384 kts | 319° |
| 2026-04-30 11:06 | 43.79238 | 15.70103 | 23196 ft | 380 kts | 311° |
| 2026-04-30 11:06 | 43.80993 | 15.67380 | 23850 ft | 378 kts | 310° |
| 2026-04-30 11:06 | 43.82719 | 15.64619 | 24259 ft | 380 kts | 309° |
| 2026-04-30 11:06 | 43.84454 | 15.61831 | 24613 ft | 384 kts | 310° |
| 2026-04-30 11:07 | 43.86209 | 15.59019 | 24978 ft | 387 kts | 310° |
| 2026-04-30 11:07 | 43.87976 | 15.56198 | 25420 ft | 388 kts | 310° |
| 2026-04-30 11:07 | 43.89753 | 15.53373 | 25867 ft | 389 kts | 310° |
| 2026-04-30 11:07 | 43.91535 | 15.50546 | 26277 ft | 390 kts | 310° |
| 2026-04-30 11:08 | 43.93324 | 15.47712 | 26675 ft | 392 kts | 309° |
| 2026-04-30 11:08 | 43.95126 | 15.44855 | 27061 ft | 395 kts | 310° |
| 2026-04-30 11:08 | 43.96942 | 15.41976 | 27359 ft | 399 kts | 310° |
| 2026-04-30 11:08 | 43.98774 | 15.39070 | 27735 ft | 400 kts | 310° |
| 2026-04-30 11:09 | 44.00606 | 15.36160 | 28154 ft | 401 kts | 309° |
| 2026-04-30 11:09 | 44.02445 | 15.33238 | 28536 ft | 402 kts | 309° |
| 2026-04-30 11:09 | 44.04294 | 15.30297 | 28862 ft | 404 kts | 309° |
| 2026-04-30 11:09 | 44.06147 | 15.27345 | 29198 ft | 406 kts | 309° |
| 2026-04-30 11:10 | 44.08010 | 15.24375 | 29525 ft | 408 kts | 309° |
| 2026-04-30 11:10 | 44.09873 | 15.21402 | 29931 ft | 408 kts | 309° |
| 2026-04-30 11:10 | 44.11733 | 15.18431 | 30455 ft | 405 kts | 309° |
| 2026-04-30 11:10 | 44.13547 | 15.15530 | 30891 ft | 402 kts | 309° |
| 2026-04-30 11:11 | 44.15405 | 15.12556 | 31210 ft | 402 kts | 309° |
| 2026-04-30 11:11 | 44.17246 | 15.09606 | 31482 ft | 403 kts | 309° |
| 2026-04-30 11:11 | 44.19059 | 15.06696 | 31831 ft | 403 kts | 309° |
| 2026-04-30 11:11 | 44.20899 | 15.03741 | 32032 ft | 406 kts | 309° |
| 2026-04-30 11:12 | 44.22757 | 15.00752 | 32188 ft | 409 kts | 309° |
| 2026-04-30 11:12 | 44.24615 | 14.97762 | 32571 ft | 406 kts | 309° |
| 2026-04-30 11:12 | 44.26457 | 14.94794 | 33010 ft | 403 kts | 309° |
| 2026-04-30 11:12 | 44.28290 | 14.91839 | 33347 ft | 402 kts | 309° |
| 2026-04-30 11:13 | 44.30122 | 14.88882 | 33607 ft | 403 kts | 309° |
| 2026-04-30 11:13 | 44.31955 | 14.85919 | 33886 ft | 403 kts | 309° |
| 2026-04-30 11:13 | 44.33787 | 14.82955 | 34212 ft | 402 kts | 309° |
| 2026-04-30 11:13 | 44.35609 | 14.80003 | 34476 ft | 401 kts | 309° |
| 2026-04-30 11:14 | 44.37436 | 14.77042 | 34663 ft | 402 kts | 309° |
| 2026-04-30 11:14 | 44.39265 | 14.74074 | 34838 ft | 403 kts | 309° |
| 2026-04-30 11:14 | 44.41093 | 14.71104 | 35060 ft | 403 kts | 309° |
| 2026-04-30 11:14 | 44.42924 | 14.68126 | 35267 ft | 403 kts | 309° |
| 2026-04-30 11:15 | 44.44754 | 14.65146 | 35402 ft | 406 kts | 309° |
| 2026-04-30 11:15 | 44.48465 | 14.59095 | 35620 ft | 410 kts | 310° |
| 2026-04-30 11:15 | 44.50320 | 14.56066 | 35864 ft | 409 kts | 310° |
| 2026-04-30 11:16 | 44.52172 | 14.53038 | 36066 ft | 409 kts | 310° |
| 2026-04-30 11:16 | 44.54028 | 14.50000 | 36215 ft | 410 kts | 310° |
| 2026-04-30 11:16 | 44.55888 | 14.46951 | 36249 ft | 413 kts | 310° |
| 2026-04-30 11:17 | 44.59618 | 14.40831 | 36256 ft | 412 kts | 310° |
| 2026-04-30 11:17 | 44.63331 | 14.34723 | 36262 ft | 411 kts | 310° |
| 2026-04-30 11:18 | 44.67041 | 14.28609 | 36266 ft | 411 kts | 310° |
| 2026-04-30 11:18 | 44.72570 | 14.19470 | 36268 ft | 411 kts | 310° |
| 2026-04-30 11:19 | 44.76275 | 14.13329 | 36261 ft | 412 kts | 310° |
| 2026-04-30 11:19 | 44.79985 | 14.07168 | 36274 ft | 413 kts | 310° |
| 2026-04-30 11:20 | 44.83704 | 14.00977 | 36296 ft | 415 kts | 310° |
| 2026-04-30 11:20 | 44.87433 | 13.94757 | 36295 ft | 416 kts | 310° |
| 2026-04-30 11:21 | 44.91204 | 13.88543 | 36296 ft | 417 kts | 311° |
| 2026-04-30 11:21 | 44.95090 | 13.82445 | 36281 ft | 418 kts | 312° |
| 2026-04-30 11:22 | 44.98988 | 13.76336 | 36294 ft | 419 kts | 312° |
| 2026-04-30 11:22 | 45.02878 | 13.70188 | 36282 ft | 419 kts | 312° |
| 2026-04-30 11:23 | 45.06755 | 13.64028 | 36279 ft | 419 kts | 312° |
| 2026-04-30 11:24 | 45.12568 | 13.54766 | 36263 ft | 419 kts | 312° |
| 2026-04-30 11:24 | 45.16428 | 13.48600 | 36284 ft | 418 kts | 312° |
| 2026-04-30 11:25 | 45.22164 | 13.39363 | 36292 ft | 418 kts | 312° |
| 2026-04-30 11:26 | 45.29798 | 13.26928 | 36299 ft | 418 kts | 312° |
| 2026-04-30 11:26 | 45.34092 | 13.21437 | 36315 ft | 415 kts | 323° |
| 2026-04-30 11:27 | 45.38717 | 13.16510 | 36302 ft | 416 kts | 323° |
| 2026-04-30 11:27 | 45.43341 | 13.11554 | 36316 ft | 417 kts | 323° |
| 2026-04-30 11:28 | 45.50278 | 13.04045 | 36310 ft | 418 kts | 323° |
| 2026-04-30 11:29 | 45.54899 | 12.99014 | 36311 ft | 418 kts | 323° |
| 2026-04-30 11:29 | 45.61839 | 12.91438 | 36302 ft | 419 kts | 323° |
| 2026-04-30 11:30 | 45.68776 | 12.83842 | 36309 ft | 419 kts | 323° |
| 2026-04-30 11:31 | 45.73408 | 12.78757 | 36303 ft | 420 kts | 323° |
| 2026-04-30 11:31 | 45.78038 | 12.73662 | 36315 ft | 420 kts | 323° |
| 2026-04-30 11:32 | 45.82675 | 12.68550 | 36319 ft | 420 kts | 323° |
| 2026-04-30 11:32 | 45.87302 | 12.63436 | 36318 ft | 420 kts | 324° |
| 2026-04-30 11:33 | 45.94241 | 12.55749 | 36319 ft | 420 kts | 324° |
| 2026-04-30 11:33 | 45.98874 | 12.50602 | 36327 ft | 421 kts | 324° |
| 2026-04-30 11:34 | 46.03508 | 12.45442 | 36324 ft | 422 kts | 324° |
| 2026-04-30 11:34 | 46.08122 | 12.40294 | 36331 ft | 423 kts | 324° |
| 2026-04-30 11:35 | 46.12769 | 12.35097 | 36311 ft | 423 kts | 324° |
| 2026-04-30 11:35 | 46.17418 | 12.29887 | 36308 ft | 423 kts | 324° |
| 2026-04-30 11:36 | 46.22067 | 12.24664 | 36287 ft | 423 kts | 323° |
| 2026-04-30 11:36 | 46.26713 | 12.19435 | 36277 ft | 423 kts | 323° |
| 2026-04-30 11:37 | 46.31359 | 12.14193 | 36270 ft | 423 kts | 323° |
| 2026-04-30 11:37 | 46.35999 | 12.08946 | 36208 ft | 424 kts | 324° |
| 2026-04-30 11:38 | 46.40635 | 12.03693 | 36246 ft | 423 kts | 324° |
| 2026-04-30 11:38 | 46.45264 | 11.98436 | 36247 ft | 423 kts | 324° |
| 2026-04-30 11:39 | 46.49896 | 11.93164 | 36241 ft | 423 kts | 324° |
| 2026-04-30 11:39 | 46.54526 | 11.87882 | 36249 ft | 424 kts | 324° |
| 2026-04-30 11:40 | 46.59167 | 11.82576 | 36235 ft | 425 kts | 324° |
| 2026-04-30 11:40 | 46.63817 | 11.77248 | 36232 ft | 426 kts | 324° |
| 2026-04-30 11:41 | 46.68477 | 11.71896 | 36226 ft | 427 kts | 324° |
| 2026-04-30 11:41 | 46.73140 | 11.66529 | 36242 ft | 428 kts | 324° |
| 2026-04-30 11:42 | 46.77812 | 11.61138 | 36241 ft | 428 kts | 324° |
| 2026-04-30 11:42 | 46.82460 | 11.55764 | 36236 ft | 429 kts | 325° |
| 2026-04-30 11:43 | 46.84941 | 11.53381 | 36231 ft | 425 kts | 336° |
| 2026-04-30 11:43 | 46.87637 | 11.51671 | 36242 ft | 422 kts | 343° |
| 2026-04-30 11:43 | 46.93314 | 11.49665 | 36225 ft | 419 kts | 350° |
| 2026-04-30 11:44 | 46.99045 | 11.47867 | 36255 ft | 418 kts | 349° |
| 2026-04-30 11:44 | 47.04694 | 11.46059 | 36260 ft | 418 kts | 349° |
| 2026-04-30 11:45 | 47.10385 | 11.44205 | 36263 ft | 419 kts | 349° |
| 2026-04-30 11:45 | 47.16077 | 11.42336 | 36270 ft | 419 kts | 349° |
| 2026-04-30 11:46 | 47.21775 | 11.40458 | 36263 ft | 420 kts | 349° |
| 2026-04-30 11:46 | 47.27468 | 11.38578 | 36267 ft | 419 kts | 350° |
| 2026-04-30 11:47 | 47.33144 | 11.36699 | 36268 ft | 417 kts | 350° |
| 2026-04-30 11:47 | 47.38815 | 11.34820 | 36263 ft | 418 kts | 350° |
| 2026-04-30 11:48 | 47.44475 | 11.32938 | 36264 ft | 417 kts | 350° |
| 2026-04-30 11:48 | 47.50124 | 11.31057 | 36259 ft | 415 kts | 351° |
| 2026-04-30 11:49 | 47.55715 | 11.29191 | 36281 ft | 415 kts | 351° |
| 2026-04-30 11:49 | 47.61344 | 11.27309 | 36288 ft | 415 kts | 351° |
| 2026-04-30 11:50 | 47.66983 | 11.25419 | 36292 ft | 416 kts | 351° |
| 2026-04-30 11:50 | 47.72630 | 11.23521 | 36302 ft | 416 kts | 351° |
| 2026-04-30 11:51 | 47.78289 | 11.21616 | 36312 ft | 417 kts | 351° |
| 2026-04-30 11:51 | 47.83954 | 11.19704 | 36312 ft | 418 kts | 351° |
| 2026-04-30 11:52 | 47.88704 | 11.18098 | 36317 ft | 418 kts | 351° |
| 2026-04-30 11:52 | 47.94336 | 11.16189 | 36321 ft | 418 kts | 352° |
| 2026-04-30 11:53 | 48.00005 | 11.14264 | 36323 ft | 417 kts | 352° |
| 2026-04-30 11:53 | 48.05667 | 11.12336 | 36337 ft | 417 kts | 352° |
| 2026-04-30 11:54 | 48.11323 | 11.10407 | 36333 ft | 417 kts | 352° |
| 2026-04-30 11:54 | 48.16978 | 11.08473 | 36347 ft | 417 kts | 352° |
| 2026-04-30 11:55 | 48.22633 | 11.06535 | 36345 ft | 417 kts | 352° |
| 2026-04-30 11:55 | 48.28295 | 11.04590 | 36347 ft | 417 kts | 352° |
| 2026-04-30 11:56 | 48.33960 | 11.02640 | 36350 ft | 418 kts | 352° |
| 2026-04-30 11:56 | 48.39622 | 11.00686 | 36345 ft | 418 kts | 352° |
| 2026-04-30 11:57 | 48.45286 | 10.98727 | 36348 ft | 418 kts | 352° |
| 2026-04-30 11:57 | 48.50948 | 10.96764 | 36346 ft | 417 kts | 352° |
| 2026-04-30 11:58 | 48.56607 | 10.94798 | 36363 ft | 417 kts | 352° |
| 2026-04-30 11:58 | 48.62270 | 10.92826 | 36372 ft | 417 kts | 352° |
| 2026-04-30 11:59 | 48.67918 | 10.90854 | 36366 ft | 416 kts | 352° |
| 2026-04-30 11:59 | 48.73559 | 10.88881 | 36371 ft | 416 kts | 352° |
| 2026-04-30 12:00 | 48.79203 | 10.86902 | 36374 ft | 416 kts | 352° |
| 2026-04-30 12:00 | 48.84851 | 10.84917 | 36392 ft | 416 kts | 352° |
| 2026-04-30 12:01 | 48.90461 | 10.82941 | 36394 ft | 417 kts | 352° |
| 2026-04-30 12:01 | 48.96109 | 10.80947 | 36404 ft | 417 kts | 352° |
| 2026-04-30 12:02 | 49.01771 | 10.78943 | 36408 ft | 417 kts | 352° |
| 2026-04-30 12:02 | 49.07427 | 10.76936 | 36420 ft | 418 kts | 352° |
| 2026-04-30 12:03 | 49.15921 | 10.73914 | 36424 ft | 417 kts | 352° |
| 2026-04-30 12:04 | 49.21505 | 10.71390 | 36419 ft | 424 kts | 341° |
| 2026-04-30 12:04 | 49.26848 | 10.67556 | 36395 ft | 424 kts | 340° |
| 2026-04-30 12:05 | 49.32171 | 10.63688 | 36401 ft | 423 kts | 340° |
| 2026-04-30 12:05 | 49.37504 | 10.59841 | 36407 ft | 423 kts | 340° |
| 2026-04-30 12:06 | 49.42842 | 10.56007 | 36408 ft | 424 kts | 340° |
| 2026-04-30 12:06 | 49.48147 | 10.52195 | 36403 ft | 424 kts | 340° |
| 2026-04-30 12:07 | 49.53484 | 10.48352 | 36410 ft | 424 kts | 340° |
| 2026-04-30 12:07 | 49.58826 | 10.44495 | 36414 ft | 424 kts | 340° |
| 2026-04-30 12:08 | 49.64161 | 10.40633 | 36415 ft | 424 kts | 340° |
| 2026-04-30 12:08 | 49.69487 | 10.36767 | 36415 ft | 423 kts | 340° |
| 2026-04-30 12:09 | 49.74810 | 10.32896 | 36419 ft | 423 kts | 340° |
| 2026-04-30 12:09 | 49.80138 | 10.29011 | 36416 ft | 424 kts | 340° |
| 2026-04-30 12:10 | 49.85473 | 10.25111 | 36425 ft | 424 kts | 340° |
| 2026-04-30 12:10 | 49.90813 | 10.21199 | 36418 ft | 424 kts | 340° |
| 2026-04-30 12:11 | 49.96155 | 10.17274 | 36416 ft | 425 kts | 340° |
| 2026-04-30 12:11 | 50.01464 | 10.13365 | 36424 ft | 425 kts | 340° |
| 2026-04-30 12:12 | 50.06459 | 10.08333 | 36408 ft | 435 kts | 324° |
| 2026-04-30 12:12 | 50.11000 | 10.02089 | 36416 ft | 435 kts | 323° |
| 2026-04-30 12:13 | 50.15527 | 9.95826 | 36423 ft | 435 kts | 324° |
| 2026-04-30 12:13 | 50.20078 | 9.89583 | 36419 ft | 436 kts | 324° |
| 2026-04-30 12:14 | 50.24641 | 9.83348 | 36412 ft | 436 kts | 324° |
| 2026-04-30 12:14 | 50.29205 | 9.77104 | 36412 ft | 436 kts | 324° |
| 2026-04-30 12:15 | 50.33769 | 9.70845 | 36391 ft | 436 kts | 323° |
| 2026-04-30 12:15 | 50.38330 | 9.64572 | 36403 ft | 437 kts | 323° |
| 2026-04-30 12:16 | 50.42893 | 9.58279 | 36406 ft | 437 kts | 323° |
| 2026-04-30 12:16 | 50.47463 | 9.51958 | 36402 ft | 438 kts | 323° |
| 2026-04-30 12:17 | 50.54319 | 9.42444 | 36405 ft | 439 kts | 323° |
| 2026-04-30 12:17 | 50.58893 | 9.36076 | 36403 ft | 439 kts | 323° |
| 2026-04-30 12:18 | 50.63463 | 9.29696 | 36396 ft | 439 kts | 323° |
| 2026-04-30 12:18 | 50.68033 | 9.23299 | 36406 ft | 439 kts | 323° |
| 2026-04-30 12:19 | 50.72599 | 9.16889 | 36407 ft | 440 kts | 323° |
| 2026-04-30 12:19 | 50.77167 | 9.10461 | 36416 ft | 440 kts | 323° |
| 2026-04-30 12:20 | 50.81739 | 9.04007 | 36419 ft | 441 kts | 323° |
| 2026-04-30 12:20 | 50.86308 | 8.97540 | 36422 ft | 441 kts | 323° |
| 2026-04-30 12:21 | 50.90874 | 8.91061 | 36424 ft | 441 kts | 322° |
| 2026-04-30 12:21 | 50.95443 | 8.84559 | 36424 ft | 441 kts | 322° |
| 2026-04-30 12:22 | 51.00009 | 8.78044 | 36424 ft | 441 kts | 322° |
| 2026-04-30 12:22 | 51.04537 | 8.71564 | 36420 ft | 441 kts | 322° |
| 2026-04-30 12:23 | 51.09089 | 8.65033 | 36420 ft | 441 kts | 322° |
| 2026-04-30 12:23 | 51.13638 | 8.58488 | 36422 ft | 441 kts | 322° |
| 2026-04-30 12:24 | 51.18179 | 8.51937 | 36401 ft | 441 kts | 322° |
| 2026-04-30 12:24 | 51.22722 | 8.45363 | 36407 ft | 441 kts | 322° |
| 2026-04-30 12:25 | 51.27258 | 8.38782 | 36412 ft | 441 kts | 322° |
| 2026-04-30 12:25 | 51.31796 | 8.32181 | 36423 ft | 441 kts | 322° |
| 2026-04-30 12:26 | 51.36335 | 8.25558 | 36407 ft | 442 kts | 322° |
| 2026-04-30 12:26 | 51.40869 | 8.18924 | 36414 ft | 442 kts | 322° |
| 2026-04-30 12:27 | 51.45408 | 8.12266 | 36407 ft | 442 kts | 321° |
| 2026-04-30 12:27 | 51.49945 | 8.05589 | 36408 ft | 443 kts | 321° |
| 2026-04-30 12:28 | 51.54488 | 7.98887 | 36402 ft | 444 kts | 321° |
| 2026-04-30 12:28 | 51.59032 | 7.92163 | 36404 ft | 444 kts | 321° |
| 2026-04-30 12:29 | 51.63579 | 7.85415 | 36403 ft | 445 kts | 321° |
| 2026-04-30 12:29 | 51.65859 | 7.82026 | 36151 ft | 447 kts | 321° |
| 2026-04-30 12:29 | 51.68132 | 7.78639 | 35894 ft | 444 kts | 321° |
| 2026-04-30 12:30 | 51.70383 | 7.75279 | 35623 ft | 439 kts | 321° |
| 2026-04-30 12:30 | 51.72615 | 7.71944 | 35370 ft | 437 kts | 321° |
| 2026-04-30 12:30 | 51.74846 | 7.68607 | 35135 ft | 437 kts | 321° |
| 2026-04-30 12:30 | 51.77079 | 7.65264 | 34894 ft | 437 kts | 321° |
| 2026-04-30 12:31 | 51.79302 | 7.61931 | 34547 ft | 435 kts | 321° |
| 2026-04-30 12:31 | 51.81511 | 7.58613 | 34041 ft | 431 kts | 320° |
| 2026-04-30 12:31 | 51.83694 | 7.55328 | 33561 ft | 426 kts | 320° |
| 2026-04-30 12:31 | 51.85853 | 7.52075 | 33112 ft | 421 kts | 320° |
| 2026-04-30 12:32 | 51.87987 | 7.48855 | 32626 ft | 418 kts | 320° |
| 2026-04-30 12:32 | 51.90101 | 7.45662 | 32173 ft | 413 kts | 320° |
| 2026-04-30 12:32 | 51.92191 | 7.42501 | 31713 ft | 410 kts | 320° |
| 2026-04-30 12:32 | 51.94264 | 7.39363 | 31269 ft | 406 kts | 320° |
| 2026-04-30 12:33 | 51.96294 | 7.36284 | 30841 ft | 403 kts | 320° |
| 2026-04-30 12:33 | 51.98334 | 7.33189 | 30379 ft | 400 kts | 320° |
| 2026-04-30 12:33 | 52.00358 | 7.30112 | 29891 ft | 398 kts | 320° |
| 2026-04-30 12:33 | 52.02369 | 7.27050 | 29458 ft | 396 kts | 320° |
| 2026-04-30 12:34 | 52.04377 | 7.23991 | 29012 ft | 397 kts | 320° |
| 2026-04-30 12:34 | 52.06400 | 7.20907 | 28545 ft | 398 kts | 320° |
| 2026-04-30 12:34 | 52.08404 | 7.17843 | 28116 ft | 394 kts | 320° |
| 2026-04-30 12:34 | 52.10391 | 7.14801 | 27672 ft | 390 kts | 320° |
| 2026-04-30 12:35 | 52.12358 | 7.11786 | 27241 ft | 387 kts | 320° |
| 2026-04-30 12:35 | 52.14310 | 7.08790 | 26808 ft | 384 kts | 320° |
| 2026-04-30 12:35 | 52.16244 | 7.05819 | 26386 ft | 381 kts | 320° |
| 2026-04-30 12:35 | 52.18164 | 7.02868 | 25973 ft | 378 kts | 320° |
| 2026-04-30 12:36 | 52.20068 | 6.99937 | 25561 ft | 376 kts | 320° |
| 2026-04-30 12:36 | 52.21954 | 6.96996 | 25149 ft | 374 kts | 317° |
| 2026-04-30 12:36 | 52.23672 | 6.93805 | 24731 ft | 374 kts | 312° |
| 2026-04-30 12:36 | 52.25285 | 6.90483 | 24323 ft | 373 kts | 310° |
| 2026-04-30 12:37 | 52.26878 | 6.87150 | 23903 ft | 371 kts | 310° |
| 2026-04-30 12:37 | 52.28478 | 6.83847 | 23416 ft | 370 kts | 311° |
| 2026-04-30 12:37 | 52.30091 | 6.80581 | 22995 ft | 367 kts | 311° |
| 2026-04-30 12:37 | 52.31691 | 6.77364 | 22599 ft | 365 kts | 312° |
| 2026-04-30 12:38 | 52.33292 | 6.74153 | 22178 ft | 364 kts | 312° |
| 2026-04-30 12:38 | 52.34892 | 6.70938 | 21805 ft | 365 kts | 312° |
| 2026-04-30 12:38 | 52.36499 | 6.67704 | 21414 ft | 367 kts | 312° |
| 2026-04-30 12:38 | 52.38107 | 6.64461 | 21001 ft | 366 kts | 312° |
| 2026-04-30 12:39 | 52.39704 | 6.61233 | 20608 ft | 364 kts | 312° |
| 2026-04-30 12:39 | 52.41293 | 6.58019 | 20211 ft | 362 kts | 312° |
| 2026-04-30 12:39 | 52.42873 | 6.54821 | 19804 ft | 360 kts | 312° |
| 2026-04-30 12:39 | 52.44444 | 6.51635 | 19407 ft | 359 kts | 312° |
| 2026-04-30 12:40 | 52.45481 | 6.49531 | 19151 ft | 358 kts | 311° |
| 2026-04-30 12:40 | 52.46744 | 6.46011 | 18721 ft | 363 kts | 289° |
| 2026-04-30 12:40 | 52.47214 | 6.41970 | 18339 ft | 361 kts | 276° |
| 2026-04-30 12:40 | 52.47422 | 6.37880 | 17900 ft | 360 kts | 274° |
| 2026-04-30 12:41 | 52.47590 | 6.33799 | 17488 ft | 358 kts | 274° |
| 2026-04-30 12:41 | 52.47757 | 6.29737 | 17090 ft | 356 kts | 274° |
| 2026-04-30 12:41 | 52.47935 | 6.25697 | 16700 ft | 354 kts | 274° |
| 2026-04-30 12:41 | 52.48121 | 6.21678 | 16318 ft | 352 kts | 275° |
| 2026-04-30 12:42 | 52.48312 | 6.17673 | 15928 ft | 351 kts | 275° |
| 2026-04-30 12:42 | 52.48504 | 6.13694 | 15547 ft | 350 kts | 275° |
| 2026-04-30 12:42 | 52.48697 | 6.09725 | 15170 ft | 348 kts | 275° |
| 2026-04-30 12:42 | 52.48887 | 6.05764 | 14791 ft | 347 kts | 275° |
| 2026-04-30 12:43 | 52.49075 | 6.01818 | 14406 ft | 347 kts | 275° |
| 2026-04-30 12:43 | 52.49262 | 5.97864 | 13912 ft | 348 kts | 274° |
| 2026-04-30 12:43 | 52.49447 | 5.93912 | 13515 ft | 346 kts | 274° |
| 2026-04-30 12:43 | 52.49630 | 5.89986 | 13127 ft | 344 kts | 274° |
| 2026-04-30 12:44 | 52.49811 | 5.86083 | 12756 ft | 342 kts | 274° |
| 2026-04-30 12:44 | 52.49990 | 5.82206 | 12385 ft | 340 kts | 273° |
| 2026-04-30 12:44 | 52.50166 | 5.78355 | 12012 ft | 337 kts | 273° |
| 2026-04-30 12:44 | 52.50339 | 5.74523 | 11652 ft | 335 kts | 273° |
| 2026-04-30 12:45 | 52.50510 | 5.70718 | 11286 ft | 334 kts | 273° |
| 2026-04-30 12:45 | 52.50681 | 5.66927 | 10930 ft | 332 kts | 273° |
| 2026-04-30 12:45 | 52.50849 | 5.63151 | 10621 ft | 329 kts | 272° |
| 2026-04-30 12:45 | 52.51011 | 5.59461 | 10476 ft | 320 kts | 272° |
| 2026-04-30 12:46 | 52.51160 | 5.55861 | 10264 ft | 314 kts | 271° |
| 2026-04-30 12:46 | 52.51220 | 5.52293 | 9934 ft | 311 kts | 269° |
| 2026-04-30 12:46 | 52.51242 | 5.48755 | 9622 ft | 309 kts | 268° |
| 2026-04-30 12:46 | 52.51257 | 5.45241 | 9308 ft | 306 kts | 268° |
| 2026-04-30 12:47 | 52.51272 | 5.41802 | 9026 ft | 304 kts | 268° |
| 2026-04-30 12:47 | 52.51290 | 5.38347 | 8710 ft | 301 kts | 268° |
| 2026-04-30 12:47 | 52.51310 | 5.34920 | 8415 ft | 299 kts | 268° |
| 2026-04-30 12:47 | 52.51331 | 5.31525 | 8129 ft | 296 kts | 268° |
| 2026-04-30 12:48 | 52.51352 | 5.28162 | 7837 ft | 294 kts | 268° |
| 2026-04-30 12:48 | 52.51372 | 5.24821 | 7550 ft | 292 kts | 268° |
| 2026-04-30 12:48 | 52.51392 | 5.21501 | 7261 ft | 290 kts | 268° |
| 2026-04-30 12:48 | 52.51412 | 5.18205 | 6901 ft | 290 kts | 267° |
| 2026-04-30 12:49 | 52.51429 | 5.14831 | 6379 ft | 296 kts | 267° |
| 2026-04-30 12:49 | 52.51448 | 5.11466 | 6015 ft | 293 kts | 267° |
| 2026-04-30 12:49 | 52.51465 | 5.08151 | 5709 ft | 289 kts | 267° |
| 2026-04-30 12:49 | 52.51482 | 5.04868 | 5424 ft | 286 kts | 266° |
| 2026-04-30 12:50 | 52.51497 | 5.01612 | 5140 ft | 284 kts | 266° |
| 2026-04-30 12:50 | 52.51511 | 4.98369 | 4857 ft | 283 kts | 266° |
| 2026-04-30 12:50 | 52.51523 | 4.95142 | 4564 ft | 281 kts | 266° |
| 2026-04-30 12:50 | 52.51536 | 4.91967 | 4280 ft | 276 kts | 265° |
| 2026-04-30 12:51 | 52.51549 | 4.88905 | 4206 ft | 261 kts | 265° |
| 2026-04-30 12:51 | 52.51561 | 4.85976 | 3967 ft | 253 kts | 264° |
| 2026-04-30 12:51 | 52.51571 | 4.83148 | 3745 ft | 242 kts | 263° |
| 2026-04-30 12:51 | 52.51579 | 4.80440 | 3508 ft | 233 kts | 263° |
| 2026-04-30 12:52 | 52.51586 | 4.77837 | 3279 ft | 223 kts | 264° |
| 2026-04-30 12:52 | 52.51457 | 4.75392 | 3020 ft | 205 kts | 241° |
| 2026-04-30 12:52 | 52.50681 | 4.73604 | 2981 ft | 188 kts | 211° |
| 2026-04-30 12:52 | 52.49564 | 4.72692 | 2688 ft | 178 kts | 179° |
| 2026-04-30 12:53 | 52.48357 | 4.72504 | 2451 ft | 178 kts | 183° |
| 2026-04-30 12:53 | 52.47120 | 4.72183 | 2216 ft | 177 kts | 178° |
| 2026-04-30 12:53 | 52.45928 | 4.72066 | 2001 ft | 166 kts | 176° |
| 2026-04-30 12:53 | 52.44809 | 4.71971 | 1779 ft | 155 kts | 175° |
| 2026-04-30 12:54 | 52.43765 | 4.71879 | 1561 ft | 152 kts | 175° |
| 2026-04-30 12:54 | 52.42707 | 4.71785 | 1360 ft | 149 kts | 175° |
| 2026-04-30 12:54 | 52.41677 | 4.71715 | 1160 ft | 147 kts | 175° |
| 2026-04-30 12:54 | 52.40683 | 4.71616 | 981 ft | 145 kts | 176° |
| 2026-04-30 12:55 | 52.39654 | 4.71512 | 759 ft | 147 kts | 176° |
| 2026-04-30 12:55 | 52.38620 | 4.71421 | 557 ft | 151 kts | 175° |
| 2026-04-30 12:55 | 52.37573 | 4.71321 | 359 ft | 153 kts | 177° |
| 2026-04-30 12:55 | 52.36493 | 4.71224 | 132 ft | 154 kts | 177° |
| 2026-04-30 12:56 | 52.35447 | 4.71125 | 6 ft | 147 kts | 179° |
| 2026-04-30 12:56 | 52.34482 | 4.71019 | 74 ft | 145 kts | 182° |
| 2026-04-30 12:56 | 52.33450 | 4.70886 | 648 ft | 144 kts | 176° |
| 2026-04-30 12:56 | 52.32460 | 4.70533 | 836 ft | 161 kts | 205° |
| 2026-04-30 12:57 | 52.31606 | 4.69142 | 987 ft | 184 kts | 226° |
| 2026-04-30 12:57 | 52.31003 | 4.67178 | 1128 ft | 205 kts | 252° |
| 2026-04-30 12:57 | 52.30961 | 4.64739 | 1472 ft | 224 kts | 281° |
| 2026-04-30 12:57 | 52.31597 | 4.62398 | 1961 ft | 230 kts | 308° |
| 2026-04-30 12:58 | 52.32831 | 4.60807 | 1970 ft | 224 kts | 343° |
| 2026-04-30 12:58 | 52.34335 | 4.60408 | 1986 ft | 218 kts | 4° |
| 2026-04-30 12:58 | 52.35831 | 4.60455 | 1972 ft | 213 kts | 8° |
| 2026-04-30 12:58 | 52.37313 | 4.60551 | 1976 ft | 213 kts | 8° |
| 2026-04-30 12:59 | 52.38797 | 4.60654 | 1993 ft | 215 kts | 8° |
| 2026-04-30 12:59 | 52.40294 | 4.60750 | 1979 ft | 214 kts | 8° |
| 2026-04-30 12:59 | 52.41782 | 4.60842 | 1987 ft | 214 kts | 8° |
| 2026-04-30 12:59 | 52.43278 | 4.60937 | 1977 ft | 215 kts | 8° |
| 2026-04-30 13:00 | 52.44738 | 4.61134 | 1971 ft | 211 kts | 20° |
| 2026-04-30 13:00 | 52.46071 | 4.61940 | 2002 ft | 198 kts | 28° |
| 2026-04-30 13:00 | 52.47323 | 4.62731 | 1963 ft | 188 kts | 28° |
| 2026-04-30 13:00 | 52.48333 | 4.63878 | 1992 ft | 171 kts | 62° |
| 2026-04-30 13:01 | 52.48582 | 4.65644 | 1999 ft | 159 kts | 104° |
| 2026-04-30 13:01 | 52.48147 | 4.67334 | 2010 ft | 165 kts | 116° |
| 2026-04-30 13:01 | 52.47600 | 4.69006 | 1968 ft | 164 kts | 117° |
| 2026-04-30 13:01 | 52.47048 | 4.70634 | 1996 ft | 164 kts | 121° |
| 2026-04-30 13:02 | 52.46143 | 4.71731 | 1972 ft | 171 kts | 164° |
| 2026-04-30 13:02 | 52.44928 | 4.71838 | 1762 ft | 172 kts | 171° |
| 2026-04-30 13:02 | 52.43763 | 4.71857 | 1540 ft | 161 kts | 174° |
| 2026-04-30 13:02 | 52.42691 | 4.71780 | 1332 ft | 147 kts | 175° |
| 2026-04-30 13:03 | 52.41671 | 4.71691 | 1143 ft | 149 kts | 175° |
| 2026-04-30 13:03 | 52.40646 | 4.71596 | 961 ft | 146 kts | 175° |
| 2026-04-30 13:03 | 52.39626 | 4.71532 | 738 ft | 149 kts | 175° |
| 2026-04-30 13:03 | 52.38597 | 4.71451 | 576 ft | 148 kts | 175° |
| 2026-04-30 13:04 | 52.37564 | 4.71322 | 381 ft | 149 kts | 174° |
| 2026-04-30 13:04 | 52.36535 | 4.71230 | 171 ft | 147 kts | 174° |
| 2026-04-30 13:04 | 52.35526 | 4.71136 | 6 ft | 140 kts | 179° |
| 2026-04-30 13:04 | 52.34673 | 4.71057 | -3 ft | 102 kts | 183° |
| 2026-04-30 13:05 | 52.34119 | 4.71006 | -5 ft | 58 kts | 183° |
| 2026-04-30 13:05 | 52.33902 | 4.71006 | -2 ft | 27 kts | 170° |
| 2026-04-30 13:05 | 52.33732 | 4.71111 | -2 ft | 25 kts | 153° |
| 2026-04-30 13:06 | 52.33526 | 4.71236 | -2 ft | 13 kts | 183° |
| 2026-04-30 13:06 | 52.33437 | 4.71228 | -2 ft | 13 kts | 183° |
| 2026-04-30 13:06 | 52.33339 | 4.71220 | -2 ft | 15 kts | 182° |
| 2026-04-30 13:06 | 52.33253 | 4.71229 | -2 ft | 12 kts | 160° |
| 2026-04-30 13:07 | 52.33187 | 4.71323 | -2 ft | 14 kts | 131° |
| 2026-04-30 13:07 | 52.33115 | 4.71457 | -2 ft | 16 kts | 131° |
| 2026-04-30 13:07 | 52.33041 | 4.71592 | -2 ft | 16 kts | 131° |
| 2026-04-30 13:07 | 52.32971 | 4.71722 | -2 ft | 15 kts | 131° |
| 2026-04-30 13:08 | 52.32903 | 4.71847 | -2 ft | 14 kts | 131° |
| 2026-04-30 13:08 | 52.32842 | 4.71971 | -2 ft | 14 kts | 117° |
| 2026-04-30 13:08 | 52.32838 | 4.72122 | -2 ft | 13 kts | 86° |
| 2026-04-30 13:08 | 52.32818 | 4.72259 | -2 ft | 13 kts | 126° |
| 2026-04-30 13:09 | 52.32752 | 4.72386 | -2 ft | 17 kts | 131° |
| 2026-04-30 13:09 | 52.32668 | 4.72536 | -2 ft | 18 kts | 136° |
| 2026-04-30 13:09 | 52.32570 | 4.72679 | -2 ft | 20 kts | 139° |
| 2026-04-30 13:09 | 52.32458 | 4.72837 | -2 ft | 22 kts | 139° |
| 2026-04-30 13:10 | 52.32345 | 4.72995 | -2 ft | 21 kts | 139° |
| 2026-04-30 13:10 | 52.32233 | 4.73152 | -2 ft | 21 kts | 139° |
| 2026-04-30 13:10 | 52.32126 | 4.73303 | -2 ft | 17 kts | 140° |
| 2026-04-30 13:10 | 52.32063 | 4.73435 | -2 ft | 15 kts | 108° |
| 2026-04-30 13:11 | 52.32052 | 4.73595 | -2 ft | 14 kts | 93° |
| 2026-04-30 13:11 | 52.32046 | 4.73768 | -2 ft | 17 kts | 93° |
| 2026-04-30 13:11 | 52.32039 | 4.73973 | -3 ft | 17 kts | 93° |
| 2026-04-30 13:11 | 52.32030 | 4.74114 | -2 ft | 11 kts | 108° |
| 2026-04-30 13:12 | 52.31972 | 4.74189 | -2 ft | 11 kts | 173° |
| 2026-04-30 13:12 | 52.31877 | 4.74184 | -2 ft | 17 kts | 183° |
| 2026-04-30 13:12 | 52.31735 | 4.74171 | -2 ft | 21 kts | 183° |
| 2026-04-30 13:13 | 52.31446 | 4.74144 | -2 ft | 20 kts | 183° |
| 2026-04-30 13:13 | 52.31307 | 4.74131 | -2 ft | 20 kts | 183° |
| 2026-04-30 13:13 | 52.31044 | 4.74107 | -2 ft | 18 kts | 182° |
| 2026-04-30 13:14 | 52.30919 | 4.74094 | -2 ft | 18 kts | 183° |
| 2026-04-30 13:14 | 52.30781 | 4.74084 | -2 ft | 21 kts | 182° |
| 2026-04-30 13:14 | 52.30507 | 4.74064 | -2 ft | 11 kts | 184° |
| 2026-04-30 13:15 | 52.30437 | 4.74092 | -2 ft | 11 kts | 139° |
| 2026-04-30 13:15 | 52.30295 | 4.74354 | 6 ft | 19 kts | 130° |
| 2026-04-30 13:15 | 52.30208 | 4.74518 | 9 ft | 19 kts | 131° |
| 2026-04-30 13:16 | 52.30122 | 4.74677 | 7 ft | 19 kts | 131° |
| 2026-04-30 13:16 | 52.30038 | 4.74832 | -2 ft | 17 kts | 131° |
| 2026-04-30 13:16 | 52.29962 | 4.74972 | -2 ft | 16 kts | 131° |
| 2026-04-30 13:17 | 52.29814 | 4.75251 | -2 ft | 14 kts | 130° |
| 2026-04-30 13:17 | 52.29776 | 4.75366 | -2 ft | 11 kts | 96° |
| 2026-04-30 13:17 | 52.29843 | 4.75600 | -2 ft | 17 kts | 58° |
| 2026-04-30 13:18 | 52.29940 | 4.75856 | -2 ft | 22 kts | 58° |
| 2026-04-30 13:18 | 52.30101 | 4.76276 | -2 ft | 21 kts | 58° |
| 2026-04-30 13:18 | 52.30179 | 4.76477 | -2 ft | 21 kts | 58° |
| 2026-04-30 13:19 | 52.30254 | 4.76673 | -2 ft | 20 kts | 58° |
| 2026-04-30 13:19 | 52.30328 | 4.76861 | -2 ft | 19 kts | 58° |
| 2026-04-30 13:19 | 52.30398 | 4.77044 | -2 ft | 19 kts | 57° |
| 2026-04-30 13:19 | 52.30465 | 4.77222 | -2 ft | 18 kts | 58° |
| 2026-04-30 13:20 | 52.30531 | 4.77393 | -2 ft | 16 kts | 58° |
| 2026-04-30 13:20 | 52.30577 | 4.77497 | -2 ft | 9 kts | 36° |
| 2026-04-30 13:20 | 52.30628 | 4.77488 | -2 ft | 6 kts | 317° |
| 2026-04-30 13:20 | 52.30639 | 4.77420 | -2 ft | 6 kts | 272° |
| 2026-04-30 13:21 | 52.30647 | 4.77352 | -2 ft | 6 kts | 310° |
| 2026-04-30 13:21 | 52.30686 | 4.77342 | -2 ft | 5 kts | 1° |
| 2026-04-30 13:21 | 52.30694 | 4.77342 | -2 ft | 0 kts | 2° |
| 2026-04-30 13:22 | 52.30700 | 4.77343 | -2 ft | 0 kts | 2° |